Decoded Metar for EPSC (SZCZECIN in POLAND) (IATA:SZZ) | Meteo·Mobile Aviation Weather
aviador You're here:

EPSC Decoded Metar

SZCZECIN in POLAND
Report Time2020-02-25 21:30:00
UTC Time2020-02-25 21:53:29
Flight Rules vfr VFR
Wind230° at 09 kt
W.Decomp.*RWY 31: 1.1 kt HW 8.9 kt LCW
Visibility9999 m
Phenomena:N/A
Clouds:N/A
Expected CloudBase > 2,400 ft AGL from Temp-Dew spread
CeilingNone
Temp05°C (ISA -10)
Dew Point-1°C (66% RH)
AAT-0.3°C
QNH0991 hPa
Density Alt-361 ft
Elevation10 ft
Report Wrong Elevation
Raw Report
EPSC 252130Z 23009KT 200V270 CAVOK 05/M01 Q0991=

Extra information for EPSC:More info

Metar Taf Metar & Taf Last 4 Metars F.Rules Stats Wind Profile Meteogram Temp Stats Airport Information Weather charts Add Link Nearby VenuesMetar ALERT Operation Metar Decoded Social comments